sensor_id;sensor_type;location;lat;lon;timestamp;pressure;altitude;pressure_sealevel;temperature;humidity
45369;BME280;51342;55.250;37.668;2023-05-29T00:01:50;99902.16;;;5.71;70.99
45369;BME280;51342;55.250;37.668;2023-05-29T00:04:22;99912.06;;;5.66;70.79
45369;BME280;51342;55.250;37.668;2023-05-29T00:06:53;99910.28;;;5.65;70.97
45369;BME280;51342;55.250;37.668;2023-05-29T00:09:26;99923.88;;;5.64;71.23
45369;BME280;51342;55.250;37.668;2023-05-29T00:11:58;99917.59;;;5.61;70.96
45369;BME280;51342;55.250;37.668;2023-05-29T00:14:29;99922.41;;;5.56;71.17
45369;BME280;51342;55.250;37.668;2023-05-29T00:17:00;99925.72;;;5.55;71.36
45369;BME280;51342;55.250;37.668;2023-05-29T00:19:33;99920.75;;;5.46;71.46
45369;BME280;51342;55.250;37.668;2023-05-29T00:22:05;99919.19;;;5.48;71.31
45369;BME280;51342;55.250;37.668;2023-05-29T00:24:36;99915.50;;;5.45;71.45
45369;BME280;51342;55.250;37.668;2023-05-29T00:27:08;99921.25;;;5.42;71.58
45369;BME280;51342;55.250;37.668;2023-05-29T00:29:40;99919.38;;;5.40;71.58
45369;BME280;51342;55.250;37.668;2023-05-29T00:32:12;99917.44;;;5.37;71.73
45369;BME280;51342;55.250;37.668;2023-05-29T00:34:43;99920.88;;;5.38;71.74
45369;BME280;51342;55.250;37.668;2023-05-29T00:37:15;99921.56;;;5.35;71.47
45369;BME280;51342;55.250;37.668;2023-05-29T00:39:47;99914.63;;;5.34;71.75
45369;BME280;51342;55.250;37.668;2023-05-29T00:42:19;99924.75;;;5.32;71.74
45369;BME280;51342;55.250;37.668;2023-05-29T00:44:50;99919.50;;;5.31;71.68
45369;BME280;51342;55.250;37.668;2023-05-29T00:47:22;99927.84;;;5.28;71.84
45369;BME280;51342;55.250;37.668;2023-05-29T00:49:55;99912.88;;;5.23;71.45
45369;BME280;51342;55.250;37.668;2023-05-29T00:52:26;99920.56;;;5.23;71.50
45369;BME280;51342;55.250;37.668;2023-05-29T00:54:58;99923.91;;;5.22;71.83
45369;BME280;51342;55.250;37.668;2023-05-29T00:57:34;99916.72;;;5.18;71.71
45369;BME280;51342;55.250;37.668;2023-05-29T01:00:06;99918.50;;;5.19;71.58
45369;BME280;51342;55.250;37.668;2023-05-29T01:02:48;99916.47;;;5.15;72.03
45369;BME280;51342;55.250;37.668;2023-05-29T01:05:19;99922.38;;;5.14;72.27
45369;BME280;51342;55.250;37.668;2023-05-29T01:07:50;99915.44;;;5.13;72.12
45369;BME280;51342;55.250;37.668;2023-05-29T01:10:22;99930.72;;;5.11;72.36
45369;BME280;51342;55.250;37.668;2023-05-29T01:13:22;99928.16;;;5.01;72.27
45369;BME280;51342;55.250;37.668;2023-05-29T01:19:10;99925.72;;;5.02;72.66
45369;BME280;51342;55.250;37.668;2023-05-29T01:25:29;99933.28;;;5.01;72.62
45369;BME280;51342;55.250;37.668;2023-05-29T01:27:35;99932.63;;;5.03;73.16
45369;BME280;51342;55.250;37.668;2023-05-29T01:30:07;99928.41;;;5.04;72.85
45369;BME280;51342;55.250;37.668;2023-05-29T01:32:41;99938.81;;;5.05;73.10
45369;BME280;51342;55.250;37.668;2023-05-29T01:35:13;99929.56;;;5.08;73.11
45369;BME280;51342;55.250;37.668;2023-05-29T01:37:44;99941.72;;;5.10;73.06
45369;BME280;51342;55.250;37.668;2023-05-29T01:40:15;99936.25;;;5.05;72.83
45369;BME280;51342;55.250;37.668;2023-05-29T01:42:48;99949.56;;;5.12;72.84
45369;BME280;51342;55.250;37.668;2023-05-29T01:45:19;99950.69;;;5.15;72.72
45369;BME280;51342;55.250;37.668;2023-05-29T01:47:51;99949.03;;;5.16;72.63
45369;BME280;51342;55.250;37.668;2023-05-29T01:50:23;99950.19;;;5.19;72.82
45369;BME280;51342;55.250;37.668;2023-05-29T01:52:55;99952.22;;;5.23;72.92
45369;BME280;51342;55.250;37.668;2023-05-29T01:55:27;99955.31;;;5.29;73.24
45369;BME280;51342;55.250;37.668;2023-05-29T01:57:59;99955.28;;;5.40;73.03
45369;BME280;51342;55.250;37.668;2023-05-29T02:00:31;99954.09;;;5.56;73.47
45369;BME280;51342;55.250;37.668;2023-05-29T02:03:03;99948.22;;;5.79;73.25
45369;BME280;51342;55.250;37.668;2023-05-29T02:05:34;99958.16;;;6.07;73.09
45369;BME280;51342;55.250;37.668;2023-05-29T02:08:06;99951.69;;;6.34;73.08
45369;BME280;51342;55.250;37.668;2023-05-29T02:10:37;99956.31;;;6.72;72.37
45369;BME280;51342;55.250;37.668;2023-05-29T02:13:08;99957.97;;;7.05;72.04
45369;BME280;51342;55.250;37.668;2023-05-29T02:15:40;99952.88;;;7.40;71.37
45369;BME280;51342;55.250;37.668;2023-05-29T02:18:15;99948.50;;;7.74;71.05
45369;BME280;51342;55.250;37.668;2023-05-29T02:20:49;99949.13;;;8.07;70.59
45369;BME280;51342;55.250;37.668;2023-05-29T02:23:26;99940.53;;;8.43;69.78
45369;BME280;51342;55.250;37.668;2023-05-29T02:25:58;99943.84;;;8.79;69.23
45369;BME280;51342;55.250;37.668;2023-05-29T02:28:29;99945.22;;;9.12;68.98
45369;BME280;51342;55.250;37.668;2023-05-29T02:31:02;99945.66;;;9.44;68.11
45369;BME280;51342;55.250;37.668;2023-05-29T02:33:34;99938.50;;;9.67;67.77
45369;BME280;51342;55.250;37.668;2023-05-29T02:36:05;99946.00;;;10.03;67.47
45369;BME280;51342;55.250;37.668;2023-05-29T02:38:41;99946.66;;;10.41;66.53
45369;BME280;51342;55.250;37.668;2023-05-29T02:41:12;99952.00;;;10.72;65.81
45369;BME280;51342;55.250;37.668;2023-05-29T02:43:44;99946.19;;;11.04;65.52
45369;BME280;51342;55.250;37.668;2023-05-29T02:46:15;99947.25;;;11.37;64.86
45369;BME280;51342;55.250;37.668;2023-05-29T02:48:46;99946.69;;;11.72;64.48
45369;BME280;51342;55.250;37.668;2023-05-29T02:51:18;99947.38;;;11.99;64.14
45369;BME280;51342;55.250;37.668;2023-05-29T02:53:49;99951.31;;;12.24;63.47
45369;BME280;51342;55.250;37.668;2023-05-29T02:56:20;99949.13;;;12.47;62.67
45369;BME280;51342;55.250;37.668;2023-05-29T02:58:56;99947.13;;;12.74;62.25
45369;BME280;51342;55.250;37.668;2023-05-29T03:01:28;99946.28;;;12.92;61.22
45369;BME280;51342;55.250;37.668;2023-05-29T03:04:00;99952.41;;;13.10;60.61
45369;BME280;51342;55.250;37.668;2023-05-29T03:06:31;99950.72;;;13.27;60.36
45369;BME280;51342;55.250;37.668;2023-05-29T03:09:04;99953.44;;;13.46;59.54
45369;BME280;51342;55.250;37.668;2023-05-29T03:11:36;99950.63;;;13.60;59.14
45369;BME280;51342;55.250;37.668;2023-05-29T03:14:09;99949.50;;;13.72;58.92
45369;BME280;51342;55.250;37.668;2023-05-29T03:16:40;99953.66;;;13.87;58.51
45369;BME280;51342;55.250;37.668;2023-05-29T03:19:11;99956.78;;;13.97;58.25
45369;BME280;51342;55.250;37.668;2023-05-29T03:21:43;99953.88;;;14.09;58.03
45369;BME280;51342;55.250;37.668;2023-05-29T03:24:14;99957.94;;;14.22;57.85
45369;BME280;51342;55.250;37.668;2023-05-29T03:26:46;99957.50;;;14.30;57.68
45369;BME280;51342;55.250;37.668;2023-05-29T03:29:19;99960.38;;;14.37;57.76
45369;BME280;51342;55.250;37.668;2023-05-29T03:31:50;99972.19;;;14.48;57.69
45369;BME280;51342;55.250;37.668;2023-05-29T03:34:28;99969.81;;;14.52;57.76
45369;BME280;51342;55.250;37.668;2023-05-29T03:37:02;99972.97;;;14.65;58.31
45369;BME280;51342;55.250;37.668;2023-05-29T03:39:34;99975.19;;;14.75;57.95
45369;BME280;51342;55.250;37.668;2023-05-29T03:42:07;99976.59;;;14.88;58.07
45369;BME280;51342;55.250;37.668;2023-05-29T03:44:39;99972.75;;;14.99;57.46
45369;BME280;51342;55.250;37.668;2023-05-29T03:47:11;99975.84;;;15.09;57.70
45369;BME280;51342;55.250;37.668;2023-05-29T03:49:43;99973.63;;;15.19;57.64
45369;BME280;51342;55.250;37.668;2023-05-29T03:52:15;99976.69;;;15.29;57.58
45369;BME280;51342;55.250;37.668;2023-05-29T03:54:47;99975.31;;;15.37;57.24
45369;BME280;51342;55.250;37.668;2023-05-29T03:57:18;99969.53;;;15.45;56.91
45369;BME280;51342;55.250;37.668;2023-05-29T03:59:50;99969.00;;;15.53;56.94
45369;BME280;51342;55.250;37.668;2023-05-29T04:02:22;99973.94;;;15.67;56.68
45369;BME280;51342;55.250;37.668;2023-05-29T04:04:53;99971.91;;;15.80;56.53
45369;BME280;51342;55.250;37.668;2023-05-29T04:07:26;99969.78;;;15.93;56.48
45369;BME280;51342;55.250;37.668;2023-05-29T04:09:58;99970.25;;;16.05;56.04
45369;BME280;51342;55.250;37.668;2023-05-29T04:12:29;99973.44;;;16.19;55.79
45369;BME280;51342;55.250;37.668;2023-05-29T04:15:13;99967.66;;;16.27;55.22
45369;BME280;51342;55.250;37.668;2023-05-29T04:17:44;99975.06;;;16.39;55.40
45369;BME280;51342;55.250;37.668;2023-05-29T04:20:28;99978.19;;;16.51;55.44
45369;BME280;51342;55.250;37.668;2023-05-29T04:23:11;99971.63;;;16.62;55.33
45369;BME280;51342;55.250;37.668;2023-05-29T04:25:43;99973.22;;;16.81;55.67
45369;BME280;51342;55.250;37.668;2023-05-29T04:28:16;99971.06;;;16.93;55.65
45369;BME280;51342;55.250;37.668;2023-05-29T04:30:48;99969.84;;;17.08;55.56
45369;BME280;51342;55.250;37.668;2023-05-29T04:33:20;99973.06;;;17.25;55.29
45369;BME280;51342;55.250;37.668;2023-05-29T04:36:07;99967.47;;;17.41;54.37
45369;BME280;51342;55.250;37.668;2023-05-29T04:38:40;99975.78;;;17.53;54.04
45369;BME280;51342;55.250;37.668;2023-05-29T04:41:24;99983.34;;;17.71;53.83
45369;BME280;51342;55.250;37.668;2023-05-29T04:44:01;99974.44;;;17.91;53.60
45369;BME280;51342;55.250;37.668;2023-05-29T04:46:58;99979.44;;;18.11;53.14
45369;BME280;51342;55.250;37.668;2023-05-29T04:49:30;99983.34;;;18.25;52.24
45369;BME280;51342;55.250;37.668;2023-05-29T04:52:01;99987.19;;;18.36;52.79
45369;BME280;51342;55.250;37.668;2023-05-29T04:54:46;99991.31;;;18.57;52.01
45369;BME280;51342;55.250;37.668;2023-05-29T04:57:36;99986.59;;;18.73;50.24
45369;BME280;51342;55.250;37.668;2023-05-29T05:00:09;99983.28;;;18.79;50.23
45369;BME280;51342;55.250;37.668;2023-05-29T05:02:49;99986.22;;;18.91;51.54
45369;BME280;51342;55.250;37.668;2023-05-29T05:05:21;99978.75;;;19.05;50.37
45369;BME280;51342;55.250;37.668;2023-05-29T05:07:52;99977.28;;;19.15;49.51
45369;BME280;51342;55.250;37.668;2023-05-29T05:10:37;99984.69;;;19.29;49.56
45369;BME280;51342;55.250;37.668;2023-05-29T05:13:08;99986.78;;;19.43;48.59
45369;BME280;51342;55.250;37.668;2023-05-29T05:18:36;99980.34;;;19.63;48.49
45369;BME280;51342;55.250;37.668;2023-05-29T05:21:11;99984.06;;;19.73;46.82
45369;BME280;51342;55.250;37.668;2023-05-29T05:23:43;99979.91;;;19.81;47.65
45369;BME280;51342;55.250;37.668;2023-05-29T05:26:15;99987.19;;;19.93;47.24
45369;BME280;51342;55.250;37.668;2023-05-29T05:28:47;99977.69;;;19.98;47.72
45369;BME280;51342;55.250;37.668;2023-05-29T05:31:19;99984.16;;;20.13;47.08
45369;BME280;51342;55.250;37.668;2023-05-29T05:34:03;99976.53;;;20.24;45.57
45369;BME280;51342;55.250;37.668;2023-05-29T05:36:34;99972.22;;;20.26;43.53
45369;BME280;51342;55.250;37.668;2023-05-29T05:39:13;99983.91;;;20.39;45.19
45369;BME280;51342;55.250;37.668;2023-05-29T05:41:48;99988.53;;;20.49;43.02
45369;BME280;51342;55.250;37.668;2023-05-29T05:44:31;99983.44;;;20.57;43.30
45369;BME280;51342;55.250;37.668;2023-05-29T05:47:12;99991.47;;;20.64;42.62
45369;BME280;51342;55.250;37.668;2023-05-29T05:49:44;99983.66;;;20.68;44.08
45369;BME280;51342;55.250;37.668;2023-05-29T05:52:17;99991.63;;;20.71;42.13
45369;BME280;51342;55.250;37.668;2023-05-29T05:54:49;99983.00;;;20.78;41.99
45369;BME280;51342;55.250;37.668;2023-05-29T05:57:22;99986.69;;;20.86;42.44
45369;BME280;51342;55.250;37.668;2023-05-29T05:59:56;99984.03;;;20.86;38.24
45369;BME280;51342;55.250;37.668;2023-05-29T06:02:29;99978.84;;;20.87;39.10
45369;BME280;51342;55.250;37.668;2023-05-29T06:05:01;99983.25;;;20.90;39.11
45369;BME280;51342;55.250;37.668;2023-05-29T06:07:32;99979.72;;;20.88;36.33
45369;BME280;51342;55.250;37.668;2023-05-29T06:10:04;99989.47;;;20.94;37.95
45369;BME280;51342;55.250;37.668;2023-05-29T06:12:36;99998.38;;;21.00;38.81
45369;BME280;51342;55.250;37.668;2023-05-29T06:15:19;100008.16;;;21.07;39.13
45369;BME280;51342;55.250;37.668;2023-05-29T06:17:50;99995.88;;;21.08;37.80
45369;BME280;51342;55.250;37.668;2023-05-29T06:20:23;99995.97;;;21.12;34.48
45369;BME280;51342;55.250;37.668;2023-05-29T06:22:54;99996.75;;;21.07;34.88
45369;BME280;51342;55.250;37.668;2023-05-29T06:25:26;100004.75;;;21.11;36.86
45369;BME280;51342;55.250;37.668;2023-05-29T06:28:04;100005.75;;;21.18;37.21
45369;BME280;51342;55.250;37.668;2023-05-29T06:30:38;100000.50;;;21.20;33.10
45369;BME280;51342;55.250;37.668;2023-05-29T06:33:12;100001.25;;;21.12;35.25
45369;BME280;51342;55.250;37.668;2023-05-29T06:35:45;100002.22;;;21.17;34.66
45369;BME280;51342;55.250;37.668;2023-05-29T06:38:17;100005.00;;;21.27;34.25
45369;BME280;51342;55.250;37.668;2023-05-29T06:40:49;100006.88;;;21.29;34.41
45369;BME280;51342;55.250;37.668;2023-05-29T06:43:20;100011.28;;;21.32;32.87
45369;BME280;51342;55.250;37.668;2023-05-29T06:45:53;100006.97;;;21.34;33.60
45369;BME280;51342;55.250;37.668;2023-05-29T06:48:25;100013.69;;;21.21;35.37
45369;BME280;51342;55.250;37.668;2023-05-29T06:50:56;100010.13;;;21.17;35.94
45369;BME280;51342;55.250;37.668;2023-05-29T06:53:46;100013.69;;;21.21;35.66
45369;BME280;51342;55.250;37.668;2023-05-29T06:56:18;100007.69;;;21.28;36.46
45369;BME280;51342;55.250;37.668;2023-05-29T06:58:50;100012.25;;;21.35;36.72
45369;BME280;51342;55.250;37.668;2023-05-29T07:01:21;100015.94;;;21.45;36.66
45369;BME280;51342;55.250;37.668;2023-05-29T07:04:07;100013.44;;;21.51;35.71
45369;BME280;51342;55.250;37.668;2023-05-29T07:06:39;100015.31;;;21.58;36.41
45369;BME280;51342;55.250;37.668;2023-05-29T07:09:11;100016.19;;;21.59;33.27
45369;BME280;51342;55.250;37.668;2023-05-29T07:11:42;100014.31;;;21.53;30.93
45369;BME280;51342;55.250;37.668;2023-05-29T07:14:14;100016.88;;;21.49;33.30
45369;BME280;51342;55.250;37.668;2023-05-29T07:16:45;100008.16;;;21.51;33.56
45369;BME280;51342;55.250;37.668;2023-05-29T07:19:17;100019.59;;;21.53;33.64
45369;BME280;51342;55.250;37.668;2023-05-29T07:21:49;100021.47;;;21.60;35.30
45369;BME280;51342;55.250;37.668;2023-05-29T07:24:22;100018.88;;;21.62;36.52
45369;BME280;51342;55.250;37.668;2023-05-29T07:26:54;100021.56;;;21.65;36.80
45369;BME280;51342;55.250;37.668;2023-05-29T07:29:26;100018.03;;;21.64;34.03
45369;BME280;51342;55.250;37.668;2023-05-29T07:31:58;100012.75;;;21.61;34.70
45369;BME280;51342;55.250;37.668;2023-05-29T07:34:30;100018.09;;;21.67;35.50
45369;BME280;51342;55.250;37.668;2023-05-29T07:37:06;100025.16;;;21.68;34.88
45369;BME280;51342;55.250;37.668;2023-05-29T07:39:39;100018.03;;;21.63;30.82
45369;BME280;51342;55.250;37.668;2023-05-29T07:42:29;100019.66;;;21.56;28.50
45369;BME280;51342;55.250;37.668;2023-05-29T07:45:01;100013.44;;;21.51;31.74
45369;BME280;51342;55.250;37.668;2023-05-29T07:47:32;100025.06;;;21.65;34.95
45369;BME280;51342;55.250;37.668;2023-05-29T07:50:04;100019.91;;;21.70;29.38
45369;BME280;51342;55.250;37.668;2023-05-29T07:52:37;100015.31;;;21.58;31.31
45369;BME280;51342;55.250;37.668;2023-05-29T07:55:08;100020.75;;;21.67;33.93
45369;BME280;51342;55.250;37.668;2023-05-29T07:57:40;100015.53;;;21.72;35.41
45369;BME280;51342;55.250;37.668;2023-05-29T08:00:13;100015.41;;;21.64;33.51
45369;BME280;51342;55.250;37.668;2023-05-29T08:02:50;100015.75;;;21.34;34.70
45369;BME280;51342;55.250;37.668;2023-05-29T08:05:34;100003.59;;;20.99;35.49
45369;BME280;51342;55.250;37.668;2023-05-29T08:08:11;100006.28;;;21.00;34.61
45369;BME280;51342;55.250;37.668;2023-05-29T08:10:44;100011.75;;;21.11;32.03
45369;BME280;51342;55.250;37.668;2023-05-29T08:13:16;100005.00;;;21.25;33.20
45369;BME280;51342;55.250;37.668;2023-05-29T08:15:49;99998.31;;;21.41;33.92
45369;BME280;51342;55.250;37.668;2023-05-29T08:18:21;99998.63;;;21.58;34.06
45369;BME280;51342;55.250;37.668;2023-05-29T08:20:52;99996.78;;;21.54;32.06
45369;BME280;51342;55.250;37.668;2023-05-29T08:23:24;99996.00;;;21.59;33.54
45369;BME280;51342;55.250;37.668;2023-05-29T08:25:55;99996.19;;;21.68;30.99
45369;BME280;51342;55.250;37.668;2023-05-29T08:28:27;99989.88;;;21.60;32.61
45369;BME280;51342;55.250;37.668;2023-05-29T08:30:58;99995.41;;;21.74;34.35
45369;BME280;51342;55.250;37.668;2023-05-29T08:33:30;99997.44;;;21.92;35.85
45369;BME280;51342;55.250;37.668;2023-05-29T08:36:01;99993.94;;;21.93;31.71
45369;BME280;51342;55.250;37.668;2023-05-29T08:38:33;99987.78;;;21.91;33.71
45369;BME280;51342;55.250;37.668;2023-05-29T08:41:04;99990.53;;;22.00;31.49
45369;BME280;51342;55.250;37.668;2023-05-29T08:43:41;99990.50;;;21.97;32.46
45369;BME280;51342;55.250;37.668;2023-05-29T08:46:13;99998.38;;;21.95;32.81
45369;BME280;51342;55.250;37.668;2023-05-29T08:48:48;99990.53;;;22.00;32.42
45369;BME280;51342;55.250;37.668;2023-05-29T08:51:21;99993.22;;;22.02;32.54
45369;BME280;51342;55.250;37.668;2023-05-29T08:53:54;99994.81;;;21.93;34.62
45369;BME280;51342;55.250;37.668;2023-05-29T08:56:25;99996.47;;;21.87;36.09
45369;BME280;51342;55.250;37.668;2023-05-29T08:58:57;99989.47;;;21.89;35.94
45369;BME280;51342;55.250;37.668;2023-05-29T09:01:28;99981.56;;;21.87;35.94
45369;BME280;51342;55.250;37.668;2023-05-29T09:04:02;99984.31;;;21.95;37.32
45369;BME280;51342;55.250;37.668;2023-05-29T09:06:33;99986.22;;;22.04;35.17
45369;BME280;51342;55.250;37.668;2023-05-29T09:09:05;99986.28;;;22.07;35.10
45369;BME280;51342;55.250;37.668;2023-05-29T09:11:36;99981.03;;;22.08;30.33
45369;BME280;51342;55.250;37.668;2023-05-29T09:14:33;99977.41;;;22.02;31.08
45369;BME280;51342;55.250;37.668;2023-05-29T09:17:05;99976.47;;;21.98;33.58
45369;BME280;51342;55.250;37.668;2023-05-29T09:19:38;99974.72;;;22.00;34.28
45369;BME280;51342;55.250;37.668;2023-05-29T09:22:13;99969.25;;;21.85;28.81
45369;BME280;51342;55.250;37.668;2023-05-29T09:24:48;99971.59;;;21.68;32.59
45369;BME280;51342;55.250;37.668;2023-05-29T09:27:22;99970.03;;;21.81;34.62
45369;BME280;51342;55.250;37.668;2023-05-29T09:29:53;99972.97;;;22.01;35.33
45369;BME280;51342;55.250;37.668;2023-05-29T09:32:32;99962.69;;;22.14;34.44
45369;BME280;51342;55.250;37.668;2023-05-29T09:35:04;99961.03;;;22.22;33.67
45369;BME280;51342;55.250;37.668;2023-05-29T09:37:41;99955.91;;;22.32;35.23
45369;BME280;51342;55.250;37.668;2023-05-29T09:40:13;99964.81;;;22.40;35.02
45369;BME280;51342;55.250;37.668;2023-05-29T09:42:45;99963.19;;;22.51;34.54
45369;BME280;51342;55.250;37.668;2023-05-29T09:45:20;99952.69;;;22.53;32.53
45369;BME280;51342;55.250;37.668;2023-05-29T09:47:52;99949.13;;;22.51;33.81
45369;BME280;51342;55.250;37.668;2023-05-29T09:50:27;99944.78;;;22.53;32.60
45369;BME280;51342;55.250;37.668;2023-05-29T09:52:59;99949.19;;;22.52;33.60
45369;BME280;51342;55.250;37.668;2023-05-29T09:55:33;99948.38;;;22.58;34.75
45369;BME280;51342;55.250;37.668;2023-05-29T09:58:07;99948.38;;;22.61;32.11
45369;BME280;51342;55.250;37.668;2023-05-29T10:00:41;99950.22;;;22.65;33.11
45369;BME280;51342;55.250;37.668;2023-05-29T10:03:13;99946.72;;;22.67;33.80
45369;BME280;51342;55.250;37.668;2023-05-29T10:05:49;99957.38;;;22.77;35.14
45369;BME280;51342;55.250;37.668;2023-05-29T10:08:21;99959.22;;;22.82;34.40
45369;BME280;51342;55.250;37.668;2023-05-29T10:11:01;99942.38;;;22.74;31.32
45369;BME280;51342;55.250;37.668;2023-05-29T10:13:36;99945.09;;;22.79;32.88
45369;BME280;51342;55.250;37.668;2023-05-29T10:16:10;99952.19;;;22.84;35.45
45369;BME280;51342;55.250;37.668;2023-05-29T10:18:44;99947.84;;;22.86;34.05
45369;BME280;51342;55.250;37.668;2023-05-29T10:21:21;99944.38;;;22.87;34.14
45369;BME280;51342;55.250;37.668;2023-05-29T10:23:54;99941.75;;;22.90;32.24
45369;BME280;51342;55.250;37.668;2023-05-29T10:26:26;99934.75;;;22.94;31.67
45369;BME280;51342;55.250;37.668;2023-05-29T10:29:05;99925.91;;;22.90;31.13
45369;BME280;51342;55.250;37.668;2023-05-29T10:37:40;99925.03;;;22.90;30.88
45369;BME280;51342;55.250;37.668;2023-05-29T10:40:14;99930.19;;;22.81;30.84
45369;BME280;51342;55.250;37.668;2023-05-29T10:42:51;99923.97;;;22.77;32.81
45369;BME280;51342;55.250;37.668;2023-05-29T10:50:42;99919.81;;;22.93;30.43
45369;BME280;51342;55.250;37.668;2023-05-29T10:53:16;99911.81;;;22.88;34.64
45369;BME280;51342;55.250;37.668;2023-05-29T10:55:48;99913.59;;;22.91;32.52
45369;BME280;51342;55.250;37.668;2023-05-29T10:58:23;99912.78;;;22.93;33.35
45369;BME280;51342;55.250;37.668;2023-05-29T11:00:55;99912.75;;;22.92;28.11
45369;BME280;51342;55.250;37.668;2023-05-29T11:03:32;99905.53;;;22.79;29.45
45369;BME280;51342;55.250;37.668;2023-05-29T11:06:05;99910.84;;;22.82;32.71
45369;BME280;51342;55.250;37.668;2023-05-29T11:11:32;99916.13;;;22.85;33.08
45369;BME280;51342;55.250;37.668;2023-05-29T11:14:07;99905.53;;;22.80;30.96
45369;BME280;51342;55.250;37.668;2023-05-29T11:19:46;99906.22;;;22.62;32.13
45369;BME280;51342;55.250;37.668;2023-05-29T11:22:23;99896.72;;;22.77;30.82
45369;BME280;51342;55.250;37.668;2023-05-29T11:24:59;99895.03;;;22.83;31.52
45369;BME280;51342;55.250;37.668;2023-05-29T11:27:32;99892.38;;;22.83;32.66
45369;BME280;51342;55.250;37.668;2023-05-29T11:30:04;99880.97;;;22.83;28.08
45369;BME280;51342;55.250;37.668;2023-05-29T11:32:38;99880.91;;;22.80;30.18
45369;BME280;51342;55.250;37.668;2023-05-29T11:35:11;99871.28;;;22.82;32.03
45369;BME280;51342;55.250;37.668;2023-05-29T11:37:44;99881.06;;;22.89;31.31
45369;BME280;51342;55.250;37.668;2023-05-29T11:40:18;99876.66;;;22.89;31.05
45369;BME280;51342;55.250;37.668;2023-05-29T11:42:50;99874.88;;;22.88;32.18
45369;BME280;51342;55.250;37.668;2023-05-29T11:45:22;99881.16;;;22.98;33.13
45369;BME280;51342;55.250;37.668;2023-05-29T11:47:58;99874.13;;;22.98;28.10
45369;BME280;51342;55.250;37.668;2023-05-29T11:50:31;99872.31;;;22.93;28.25
45369;BME280;51342;55.250;37.668;2023-05-29T11:53:06;99872.16;;;22.85;31.68
45369;BME280;51342;55.250;37.668;2023-05-29T11:55:38;99877.44;;;22.85;31.80
45369;BME280;51342;55.250;37.668;2023-05-29T11:58:10;99874.91;;;22.91;32.71
45369;BME280;51342;55.250;37.668;2023-05-29T12:00:42;99870.56;;;22.93;31.31
45369;BME280;51342;55.250;37.668;2023-05-29T12:03:14;99868.78;;;22.94;31.68
45369;BME280;51342;55.250;37.668;2023-05-29T12:05:47;99869.63;;;22.91;30.77
45369;BME280;51342;55.250;37.668;2023-05-29T12:08:24;99863.31;;;22.80;28.85
45369;BME280;51342;55.250;37.668;2023-05-29T12:10:56;99856.28;;;22.79;30.40
45369;BME280;51342;55.250;37.668;2023-05-29T12:13:27;99863.31;;;22.75;27.42
45369;BME280;51342;55.250;37.668;2023-05-29T12:16:02;99857.09;;;22.73;29.74
45369;BME280;51342;55.250;37.668;2023-05-29T12:18:35;99846.53;;;22.72;30.13
45369;BME280;51342;55.250;37.668;2023-05-29T12:21:07;99857.97;;;22.69;29.03
45369;BME280;51342;55.250;37.668;2023-05-29T12:23:38;99857.03;;;22.67;30.47
45369;BME280;51342;55.250;37.668;2023-05-29T12:26:10;99854.44;;;22.70;32.85
45369;BME280;51342;55.250;37.668;2023-05-29T12:28:45;99850.13;;;22.80;33.07
45369;BME280;51342;55.250;37.668;2023-05-29T12:31:27;99846.59;;;22.78;33.76
45369;BME280;51342;55.250;37.668;2023-05-29T12:34:01;99848.38;;;22.78;33.16
45369;BME280;51342;55.250;37.668;2023-05-29T12:36:32;99844.91;;;22.82;33.59
45369;BME280;51342;55.250;37.668;2023-05-29T12:39:07;99851.94;;;22.81;33.94
45369;BME280;51342;55.250;37.668;2023-05-29T12:41:40;99847.53;;;22.83;34.03
45369;BME280;51342;55.250;37.668;2023-05-29T12:44:12;99847.63;;;22.88;34.49
45369;BME280;51342;55.250;37.668;2023-05-29T12:46:44;99844.09;;;22.87;31.97
45369;BME280;51342;55.250;37.668;2023-05-29T12:49:17;99842.25;;;22.82;30.69
45369;BME280;51342;55.250;37.668;2023-05-29T12:51:51;99828.91;;;22.66;30.75
45369;BME280;51342;55.250;37.668;2023-05-29T12:54:23;99831.53;;;22.66;32.60
45369;BME280;51342;55.250;37.668;2023-05-29T12:56:55;99828.06;;;22.70;32.53
45369;BME280;51342;55.250;37.668;2023-05-29T12:59:27;99828.97;;;22.71;31.37
45369;BME280;51342;55.250;37.668;2023-05-29T13:01:58;99830.72;;;22.70;33.72
45369;BME280;51342;55.250;37.668;2023-05-29T13:04:30;99824.56;;;22.70;29.93
45369;BME280;51342;55.250;37.668;2023-05-29T13:07:01;99826.25;;;22.66;29.90
45369;BME280;51342;55.250;37.668;2023-05-29T13:09:33;99822.69;;;22.61;31.44
45369;BME280;51342;55.250;37.668;2023-05-29T13:12:04;99827.06;;;22.59;28.66
45369;BME280;51342;55.250;37.668;2023-05-29T13:14:36;99822.63;;;22.55;30.44
45369;BME280;51342;55.250;37.668;2023-05-29T13:17:08;99820.81;;;22.51;29.94
45369;BME280;51342;55.250;37.668;2023-05-29T13:19:39;99823.44;;;22.48;31.83
45369;BME280;51342;55.250;37.668;2023-05-29T13:22:11;99820.78;;;22.46;30.77
45369;BME280;51342;55.250;37.668;2023-05-29T13:24:42;99817.22;;;22.43;31.70
45369;BME280;51342;55.250;37.668;2023-05-29T13:27:14;99828.66;;;22.43;31.81
45369;BME280;51342;55.250;37.668;2023-05-29T13:29:47;99819.81;;;22.38;32.74
45369;BME280;51342;55.250;37.668;2023-05-29T13:32:18;99825.94;;;22.36;34.39
45369;BME280;51342;55.250;37.668;2023-05-29T13:34:50;99833.84;;;22.36;33.58
45369;BME280;51342;55.250;37.668;2023-05-29T13:37:21;99826.78;;;22.35;31.73
45369;BME280;51342;55.250;37.668;2023-05-29T13:39:53;99825.88;;;22.31;31.63
45369;BME280;51342;55.250;37.668;2023-05-29T13:42:25;99836.31;;;22.23;33.15
45369;BME280;51342;55.250;37.668;2023-05-29T13:44:56;99835.41;;;22.20;30.42
45369;BME280;51342;55.250;37.668;2023-05-29T13:47:28;99830.94;;;22.14;29.54
45369;BME280;51342;55.250;37.668;2023-05-29T13:50:03;99827.41;;;22.12;32.04